Time;durP1;ratioP1;P1;durP2;ratioP2;P2;SDS_P1;SDS_P2;PMS_P1;PMS_P2;Temp;Humidity;BMP_temperature;BMP_pressure;BME280_temperature;BME280_humidity;BME280_pressure;Samples;Min_cycle;Max_cycle;Signal;HPM_P1;HPM_P2
2021/07/18 00:01:41;;;;;;;0.43;0.35;;;21.40;99.90;;;;;;5082778;28;20203;-70
2021/07/18 00:04:07;;;;;;;0.15;0.15;;;21.40;99.90;;;;;;5078567;28;20179;-70
2021/07/18 00:06:34;;;;;;;0.65;0.20;;;21.40;99.90;;;;;;5085231;28;20207;-71
2021/07/18 00:09:01;;;;;;;0.10;0.10;;;21.40;99.90;;;;;;5086377;28;20226;-71
2021/07/18 00:11:27;;;;;;;0.17;0.17;;;21.40;99.90;;;;;;5085325;28;20162;-71
2021/07/18 00:13:53;;;;;;;0.10;0.10;;;21.30;99.90;;;;;;5087238;28;20186;-71
2021/07/18 00:16:19;;;;;;;0.10;0.10;;;21.30;99.90;;;;;;5088603;28;20191;-71
2021/07/18 00:18:45;;;;;;;0.35;0.35;;;21.30;99.90;;;;;;5088553;28;20155;-72
2021/07/18 00:21:11;;;;;;;0.98;0.20;;;21.30;99.90;;;;;;5089281;28;20172;-72
2021/07/18 00:23:37;;;;;;;0.10;0.10;;;21.20;99.90;;;;;;5087213;28;20167;-71
2021/07/18 00:26:04;;;;;;;0.45;0.22;;;21.20;99.90;;;;;;5084960;28;20274;-72
2021/07/18 00:28:30;;;;;;;0.10;0.10;;;21.10;99.90;;;;;;5085474;28;20198;-72
2021/07/18 00:30:57;;;;;;;0.20;0.20;;;21.10;99.90;;;;;;5087822;28;20163;-72
2021/07/18 00:33:23;;;;;;;0.20;0.20;;;21.10;99.90;;;;;;5086492;28;20171;-72
2021/07/18 00:35:49;;;;;;;0.15;0.15;;;21.10;99.90;;;;;;5087144;28;20222;-71
2021/07/18 00:38:15;;;;;;;1.48;0.50;;;21.10;99.90;;;;;;5087712;28;20168;-71
2021/07/18 00:40:40;;;;;;;0.10;0.03;;;21.10;99.90;;;;;;5087336;28;20555;-70
2021/07/18 00:43:07;;;;;;;0.10;0.10;;;21.10;99.90;;;;;;5086798;28;20771;-70
2021/07/18 00:45:32;;;;;;;0.30;0.30;;;21.20;99.90;;;;;;5086702;28;20264;-70
2021/07/18 00:47:59;;;;;;;0.10;0.10;;;21.20;99.90;;;;;;5085732;28;20207;-70
2021/07/18 00:50:27;;;;;;;0.20;0.20;;;21.30;99.90;;;;;;5087631;28;20187;-70
2021/07/18 00:52:53;;;;;;;0.30;0.30;;;21.30;99.90;;;;;;5087390;28;20168;-70
2021/07/18 00:55:19;;;;;;;0.10;0.10;;;21.30;99.90;;;;;;5088359;28;20211;-70
2021/07/18 00:57:47;;;;;;;0.70;0.43;;;21.20;99.90;;;;;;5086734;28;20175;-70
2021/07/18 01:00:15;;;;;;;0.85;0.70;;;21.30;99.90;;;;;;5099507;28;20644;-69
2021/07/18 01:02:42;;;;;;;1.65;0.30;;;21.20;99.90;;;;;;5088249;28;20195;-70
2021/07/18 01:05:10;;;;;;;0.22;0.10;;;21.20;99.90;;;;;;5086889;28;20191;-70
2021/07/18 01:07:37;;;;;;;0.75;0.68;;;21.20;99.90;;;;;;5088174;28;20240;-70
2021/07/18 01:10:05;;;;;;;0.20;0.20;;;21.20;99.90;;;;;;5086824;28;20160;-70
2021/07/18 01:12:32;;;;;;;0.20;0.20;;;21.20;99.90;;;;;;5084271;28;20179;-71
2021/07/18 01:14:59;;;;;;;0.60;0.43;;;21.20;99.90;;;;;;5087986;28;20199;-70
2021/07/18 01:17:25;;;;;;;0.20;0.20;;;21.20;99.90;;;;;;5087201;28;20171;-70
2021/07/18 01:19:51;;;;;;;0.95;0.30;;;21.20;99.90;;;;;;5087123;28;20168;-73
2021/07/18 01:22:18;;;;;;;0.10;0.10;;;21.20;99.90;;;;;;5086742;28;20213;-72
2021/07/18 01:24:44;;;;;;;0.25;0.25;;;21.20;99.90;;;;;;5087210;28;20203;-72
2021/07/18 01:27:10;;;;;;;0.00;0.00;;;21.20;99.90;;;;;;5085706;28;20218;-71
2021/07/18 01:29:36;;;;;;;0.00;0.00;;;21.20;99.90;;;;;;5086825;28;20195;-72
2021/07/18 01:32:03;;;;;;;0.00;0.00;;;21.20;99.90;;;;;;5087092;28;20163;-72
2021/07/18 01:34:29;;;;;;;0.10;0.10;;;21.30;99.90;;;;;;5088502;28;20221;-72
2021/07/18 01:36:55;;;;;;;0.10;0.10;;;21.30;99.90;;;;;;5090046;28;20175;-72
2021/07/18 01:39:22;;;;;;;0.20;0.20;;;21.30;99.90;;;;;;5108722;28;20203;-72
2021/07/18 01:41:50;;;;;;;0.20;0.10;;;21.30;99.90;;;;;;5112471;28;20167;-72
2021/07/18 01:44:16;;;;;;;0.10;0.10;;;21.30;99.90;;;;;;5092601;28;20191;-72
2021/07/18 01:46:42;;;;;;;0.57;0.57;;;21.20;99.90;;;;;;5091986;28;20307;-72
2021/07/18 01:49:11;;;;;;;0.68;0.45;;;21.20;99.90;;;;;;5092101;28;20196;-73
2021/07/18 01:51:37;;;;;;;0.50;0.50;;;21.20;99.90;;;;;;5092140;28;20148;-72
2021/07/18 01:54:05;;;;;;;0.28;0.28;;;21.20;99.90;;;;;;5072264;28;20179;-72
2021/07/18 01:56:31;;;;;;;0.32;0.32;;;21.30;99.90;;;;;;5071907;28;20644;-72
2021/07/18 01:58:57;;;;;;;0.63;0.63;;;21.30;99.90;;;;;;5071834;28;20196;-72
2021/07/18 02:01:28;;;;;;;0.30;0.30;;;21.30;99.90;;;;;;5071862;28;20168;-72
2021/07/18 02:03:55;;;;;;;0.10;0.10;;;21.30;99.90;;;;;;5070580;28;20180;-72
2021/07/18 02:06:23;;;;;;;0.10;0.10;;;21.30;99.90;;;;;;5070401;28;20696;-72
2021/07/18 02:08:50;;;;;;;0.10;0.10;;;21.30;99.90;;;;;;5070266;28;20329;-73
2021/07/18 02:11:17;;;;;;;0.03;0.03;;;21.30;99.90;;;;;;5071758;28;20163;-72
2021/07/18 02:13:50;;;;;;;0.30;0.30;;;21.30;99.90;;;;;;5070344;28;20179;-72
2021/07/18 02:16:17;;;;;;;0.20;0.20;;;21.30;99.90;;;;;;5071647;28;20187;-72
2021/07/18 02:18:43;;;;;;;0.10;0.10;;;21.50;99.90;;;;;;5071522;28;20191;-72
2021/07/18 02:21:10;;;;;;;0.35;0.35;;;21.40;99.90;;;;;;5071551;28;20152;-72
2021/07/18 02:23:36;;;;;;;0.30;0.30;;;21.30;99.90;;;;;;5071482;28;20148;-72
2021/07/18 02:26:03;;;;;;;0.20;0.20;;;21.30;99.90;;;;;;5070054;28;20171;-71
2021/07/18 02:28:30;;;;;;;0.40;0.40;;;21.30;99.90;;;;;;5071130;28;20207;-72
2021/07/18 02:30:56;;;;;;;0.00;0.00;;;21.30;99.90;;;;;;5071321;28;20181;-72
2021/07/18 02:33:22;;;;;;;0.25;0.10;;;21.30;99.90;;;;;;5070193;28;20174;-73
2021/07/18 02:35:49;;;;;;;0.32;0.32;;;21.30;99.90;;;;;;5069915;28;20176;-73
2021/07/18 02:38:15;;;;;;;0.65;0.65;;;21.30;99.90;;;;;;5096727;28;20228;-72
2021/07/18 02:40:42;;;;;;;0.10;0.10;;;21.20;99.90;;;;;;5111600;28;20223;-72
2021/07/18 02:43:07;;;;;;;0.28;0.28;;;21.20;99.90;;;;;;5102464;28;20573;-72
2021/07/18 02:45:33;;;;;;;0.25;0.25;;;21.20;99.90;;;;;;5090871;28;20314;-72
2021/07/18 02:48:00;;;;;;;0.25;0.25;;;21.10;99.90;;;;;;5089533;28;20202;-72
2021/07/18 02:50:28;;;;;;;0.10;0.10;;;21.10;99.90;;;;;;5089550;28;20227;-73
2021/07/18 02:52:55;;;;;;;0.82;0.32;;;21.10;99.90;;;;;;5090230;28;20160;-73
2021/07/18 02:55:22;;;;;;;0.68;0.30;;;21.10;99.90;;;;;;5089536;28;20231;-73
2021/07/18 02:57:49;;;;;;;0.17;0.17;;;21.20;99.90;;;;;;5090750;28;20251;-72
2021/07/18 03:00:21;;;;;;;0.73;0.73;;;21.20;99.90;;;;;;5090900;28;20163;-72
2021/07/18 03:02:48;;;;;;;1.75;1.08;;;21.20;99.90;;;;;;5090156;28;20238;-73
2021/07/18 03:05:14;;;;;;;0.08;0.08;;;21.30;99.90;;;;;;5089999;28;20256;-73
2021/07/18 03:07:41;;;;;;;0.10;0.10;;;21.20;99.90;;;;;;5089955;28;20251;-72
2021/07/18 03:10:09;;;;;;;4.65;1.55;;;21.20;99.90;;;;;;5089901;28;20733;-72
2021/07/18 03:12:36;;;;;;;0.75;0.75;;;21.20;99.90;;;;;;5089776;28;20152;-73
2021/07/18 03:15:07;;;;;;;1.63;1.40;;;21.20;99.90;;;;;;5089797;28;20521;-72
2021/07/18 03:17:33;;;;;;;0.70;0.70;;;21.20;99.90;;;;;;5088464;28;20236;-72
2021/07/18 03:19:59;;;;;;;0.28;0.28;;;21.20;99.90;;;;;;5088409;28;20196;-73
2021/07/18 03:22:26;;;;;;;0.13;0.13;;;21.30;99.90;;;;;;5089578;28;20190;-72
2021/07/18 03:24:52;;;;;;;0.68;0.68;;;21.20;99.90;;;;;;5089650;28;20219;-73
2021/07/18 03:27:18;;;;;;;0.30;0.28;;;21.20;99.90;;;;;;5088181;28;20207;-73
2021/07/18 03:29:44;;;;;;;0.10;0.10;;;21.30;99.90;;;;;;5088082;28;20191;-72
2021/07/18 03:32:10;;;;;;;0.70;0.70;;;21.30;99.90;;;;;;5089996;28;20284;-72
2021/07/18 03:34:36;;;;;;;0.40;0.40;;;21.40;99.90;;;;;;5090263;28;20175;-72
2021/07/18 03:37:02;;;;;;;0.28;0.28;;;21.50;99.90;;;;;;5091253;28;20542;-72
2021/07/18 03:39:27;;;;;;;0.20;0.20;;;21.50;99.90;;;;;;5108949;28;20201;-72
2021/07/18 03:41:53;;;;;;;2.30;0.75;;;21.50;99.90;;;;;;5110373;28;20231;-72
2021/07/18 03:44:19;;;;;;;0.00;0.00;;;21.50;99.90;;;;;;5089949;28;20175;-72
2021/07/18 03:46:45;;;;;;;0.68;0.30;;;21.50;99.90;;;;;;5089608;28;20222;-72
2021/07/18 03:49:11;;;;;;;0.17;0.17;;;21.50;99.90;;;;;;5088335;28;20263;-72
2021/07/18 03:51:37;;;;;;;1.15;0.80;;;21.50;99.90;;;;;;5089748;28;20164;-72
2021/07/18 03:54:03;;;;;;;0.45;0.45;;;21.60;99.90;;;;;;5088244;28;20199;-72
2021/07/18 03:56:29;;;;;;;0.20;0.20;;;21.70;99.90;;;;;;5089686;28;20160;-73
2021/07/18 03:58:55;;;;;;;0.25;0.25;;;21.70;99.90;;;;;;5089801;28;20160;-71
2021/07/18 04:01:21;;;;;;;0.20;0.20;;;21.70;99.90;;;;;;5089710;28;20170;-72
2021/07/18 04:03:47;;;;;;;0.40;0.40;;;21.70;99.90;;;;;;5088515;28;20227;-72
2021/07/18 04:06:15;;;;;;;0.98;0.50;;;21.80;99.90;;;;;;5089576;28;20160;-72
2021/07/18 04:08:41;;;;;;;0.22;0.22;;;21.80;99.90;;;;;;5089524;28;20148;-72
2021/07/18 04:11:08;;;;;;;0.03;0.03;;;21.80;99.90;;;;;;5089423;28;20160;-72
2021/07/18 04:13:35;;;;;;;0.20;0.20;;;21.80;99.90;;;;;;5089420;28;20207;-72
2021/07/18 04:16:01;;;;;;;0.50;0.50;;;21.80;99.90;;;;;;5089399;28;20148;-72
2021/07/18 04:18:27;;;;;;;0.30;0.30;;;21.80;99.90;;;;;;5088059;28;20229;-72
2021/07/18 04:20:53;;;;;;;2.85;0.57;;;21.80;99.90;;;;;;5089261;28;20156;-72
2021/07/18 04:23:19;;;;;;;0.57;0.30;;;21.90;99.90;;;;;;5087755;28;20175;-72
2021/07/18 04:25:46;;;;;;;1.35;0.95;;;21.90;99.90;;;;;;5089143;28;20163;-72
2021/07/18 04:28:13;;;;;;;0.40;0.40;;;21.90;99.90;;;;;;5089071;28;20589;-72
2021/07/18 04:30:41;;;;;;;0.65;0.65;;;21.90;99.90;;;;;;5089095;28;20227;-73
2021/07/18 04:33:07;;;;;;;0.38;0.38;;;21.80;99.90;;;;;;5089198;28;20163;-72
2021/07/18 04:35:34;;;;;;;0.70;0.70;;;21.90;99.90;;;;;;5087760;28;20195;-72
2021/07/18 04:38:03;;;;;;;14.48;0.90;;;21.90;99.90;;;;;;5088868;28;20174;-72
2021/07/18 04:40:30;;;;;;;0.30;0.30;;;21.90;99.90;;;;;;5088883;28;20174;-73
2021/07/18 04:42:56;;;;;;;0.80;0.80;;;21.90;99.90;;;;;;5088997;28;20183;-73
2021/07/18 04:45:21;;;;;;;0.43;0.43;;;21.80;99.90;;;;;;5088640;28;20237;-73
2021/07/18 04:47:49;;;;;;;0.20;0.20;;;21.80;99.90;;;;;;5088891;28;20203;-72
2021/07/18 04:50:16;;;;;;;0.68;0.68;;;21.80;99.90;;;;;;5087708;28;20160;-72
2021/07/18 04:52:43;;;;;;;0.90;0.68;;;21.80;99.90;;;;;;5088920;28;20178;-73
2021/07/18 04:55:11;;;;;;;0.28;0.28;;;21.80;99.90;;;;;;5087325;28;20191;-73
2021/07/18 04:57:38;;;;;;;1.15;0.57;;;21.90;99.90;;;;;;5088828;28;20167;-73
2021/07/18 05:00:07;;;;;;;1.25;1.15;;;21.90;99.90;;;;;;5088816;28;20163;-73
2021/07/18 05:02:33;;;;;;;1.13;0.82;;;21.90;99.90;;;;;;5088956;28;20160;-73
2021/07/18 05:04:59;;;;;;;0.80;0.80;;;21.90;99.90;;;;;;5087406;28;20195;-73
2021/07/18 05:07:26;;;;;;;0.88;0.88;;;21.90;99.90;;;;;;5088692;28;20191;-73
2021/07/18 05:09:52;;;;;;;0.68;0.52;;;22.00;99.90;;;;;;5087342;28;20234;-73
2021/07/18 05:12:18;;;;;;;0.68;0.40;;;22.00;99.90;;;;;;5088670;28;20163;-73
2021/07/18 05:14:45;;;;;;;1.30;0.50;;;21.90;99.90;;;;;;5089154;28;20255;-72
2021/07/18 05:17:13;;;;;;;1.77;1.00;;;21.90;99.90;;;;;;5091495;28;20168;-73
2021/07/18 05:19:39;;;;;;;0.98;0.60;;;21.90;99.90;;;;;;5092791;28;20179;-73
2021/07/18 05:22:07;;;;;;;0.55;0.55;;;22.10;99.90;;;;;;5092732;28;20156;-73
2021/07/18 05:24:34;;;;;;;0.60;0.60;;;22.10;99.90;;;;;;5092749;28;20281;-73
2021/07/18 05:27:00;;;;;;;0.85;0.85;;;22.20;99.90;;;;;;5092540;28;20267;-73
2021/07/18 05:29:26;;;;;;;0.98;0.85;;;22.30;99.90;;;;;;5092659;28;20156;-73
2021/07/18 05:31:52;;;;;;;0.22;0.22;;;22.40;99.90;;;;;;5092542;28;20162;-74
2021/07/18 05:34:18;;;;;;;1.20;1.13;;;22.60;99.90;;;;;;5092390;28;20187;-73
2021/07/18 05:36:44;;;;;;;2.88;1.55;;;22.70;99.90;;;;;;5092630;28;20159;-73
2021/07/18 05:39:10;;;;;;;0.30;0.30;;;22.70;99.90;;;;;;5111450;28;20174;-73
2021/07/18 05:41:36;;;;;;;0.90;0.75;;;22.70;99.90;;;;;;5112631;28;20246;-73
2021/07/18 05:44:02;;;;;;;0.20;0.20;;;22.60;99.90;;;;;;5094625;28;20206;-73
2021/07/18 05:46:28;;;;;;;8.70;3.13;;;22.50;99.90;;;;;;5091867;28;20234;-72
2021/07/18 05:48:54;;;;;;;0.73;0.60;;;22.40;99.90;;;;;;5092255;28;20167;-73
2021/07/18 05:51:20;;;;;;;0.68;0.68;;;22.30;99.90;;;;;;5092198;28;20159;-74
2021/07/18 05:53:46;;;;;;;0.15;0.15;;;22.30;99.90;;;;;;5091915;28;20213;-73
2021/07/18 05:56:11;;;;;;;0.98;0.93;;;22.30;99.90;;;;;;5091983;28;20212;-73
2021/07/18 05:58:37;;;;;;;2.55;0.73;;;22.30;99.90;;;;;;5092122;28;20148;-73
2021/07/18 06:01:03;;;;;;;9.52;0.73;;;22.40;99.90;;;;;;5090659;28;20186;-73
2021/07/18 06:03:29;;;;;;;0.80;0.47;;;22.40;99.90;;;;;;5091914;28;20185;-73
2021/07/18 06:05:55;;;;;;;0.88;0.75;;;22.40;99.90;;;;;;5090590;28;20584;-73
2021/07/18 06:08:21;;;;;;;0.85;0.85;;;22.60;99.90;;;;;;5090382;28;20196;-74
2021/07/18 06:10:48;;;;;;;1.60;0.88;;;22.70;99.90;;;;;;5091720;28;20160;-74
2021/07/18 06:13:14;;;;;;;0.43;0.43;;;22.80;99.90;;;;;;5091639;28;20507;-73
2021/07/18 06:15:40;;;;;;;0.13;0.13;;;23.00;99.90;;;;;;5091844;28;20187;-74
2021/07/18 06:18:06;;;;;;;0.17;0.17;;;23.30;99.90;;;;;;5090265;28;20167;-73
2021/07/18 06:20:32;;;;;;;0.55;0.55;;;24.20;99.90;;;;;;5091659;28;20156;-74
2021/07/18 06:22:58;;;;;;;1.50;0.57;;;24.80;99.90;;;;;;5091588;28;20178;-74
2021/07/18 06:25:23;;;;;;;0.25;0.25;;;24.50;99.90;;;;;;5090149;28;20195;-74
2021/07/18 06:27:49;;;;;;;0.75;0.75;;;24.10;99.90;;;;;;5090419;28;20210;-73
2021/07/18 06:30:16;;;;;;;1.67;1.10;;;23.60;99.90;;;;;;5090215;28;20168;-73
2021/07/18 06:32:42;;;;;;;2.60;0.98;;;23.40;99.90;;;;;;5091370;28;20160;-73
2021/07/18 06:35:12;;;;;;;0.80;0.80;;;23.50;99.90;;;;;;5091302;28;20194;-73
2021/07/18 06:37:37;;;;;;;0.68;0.45;;;24.10;99.90;;;;;;5097651;28;20269;-73
2021/07/18 06:40:05;;;;;;;0.93;0.73;;;25.70;99.90;;;;;;5111563;28;20275;-73
2021/07/18 06:42:32;;;;;;;0.73;0.68;;;26.00;99.90;;;;;;5106390;28;20175;-73
2021/07/18 06:45:00;;;;;;;0.75;0.60;;;25.10;99.90;;;;;;5090950;28;20202;-73
2021/07/18 06:47:27;;;;;;;0.73;0.73;;;24.20;99.90;;;;;;5089779;28;20511;-74
2021/07/18 06:49:55;;;;;;;0.80;0.70;;;23.80;99.90;;;;;;5089739;28;20160;-73
2021/07/18 06:52:21;;;;;;;1.02;0.93;;;23.60;99.90;;;;;;5090987;28;20202;-73
2021/07/18 06:54:47;;;;;;;0.98;0.98;;;23.50;99.90;;;;;;5090888;28;20584;-73
2021/07/18 06:57:13;;;;;;;1.25;0.95;;;23.40;99.90;;;;;;5090899;28;20155;-73
2021/07/18 06:59:39;;;;;;;0.90;0.82;;;23.30;99.90;;;;;;5090857;28;20525;-73
2021/07/18 07:02:05;;;;;;;7.10;0.93;;;23.40;99.90;;;;;;5090784;28;20223;-73
2021/07/18 07:04:31;;;;;;;0.55;0.55;;;23.30;99.90;;;;;;5090655;28;20198;-73
2021/07/18 07:06:56;;;;;;;1.40;0.98;;;23.40;99.90;;;;;;5090157;28;20191;-74
2021/07/18 07:09:22;;;;;;;0.70;0.70;;;23.50;99.90;;;;;;5089963;28;20543;-74
2021/07/18 07:11:48;;;;;;;0.20;0.20;;;23.60;99.90;;;;;;5089930;28;20228;-74
2021/07/18 07:14:14;;;;;;;0.55;0.55;;;23.60;99.90;;;;;;5089848;28;20218;-73
2021/07/18 07:16:40;;;;;;;0.90;0.90;;;23.20;99.90;;;;;;5090105;28;20160;-73
2021/07/18 07:19:06;;;;;;;2.17;0.98;;;22.60;99.90;;;;;;5088538;28;20640;-73
2021/07/18 07:21:32;;;;;;;0.57;0.57;;;22.20;99.90;;;;;;5089898;28;20167;-72
2021/07/18 07:23:58;;;;;;;0.60;0.60;;;22.00;99.90;;;;;;5089693;28;20187;-73
2021/07/18 07:26:24;;;;;;;0.70;0.70;;;21.80;99.90;;;;;;5089658;28;20674;-71
2021/07/18 07:28:50;;;;;;;1.67;1.25;;;21.60;99.90;;;;;;5089747;28;20213;-73
2021/07/18 07:31:16;;;;;;;3.08;1.42;;;21.50;99.90;;;;;;5089617;28;20178;-72
2021/07/18 07:33:42;;;;;;;4.05;1.23;;;21.40;99.90;;;;;;5089741;28;20189;-73
2021/07/18 07:36:08;;;;;;;2.72;1.35;;;21.40;99.90;;;;;;5090115;28;20215;-72
2021/07/18 07:38:35;;;;;;;1.17;1.17;;;21.10;99.90;;;;;;5105432;28;20166;-73
2021/07/18 07:41:01;;;;;;;1.50;1.40;;;20.90;99.90;;;;;;5110350;28;20221;-73
2021/07/18 07:43:27;;;;;;;1.02;0.70;;;20.80;99.90;;;;;;5092962;28;20182;-73
2021/07/18 07:45:53;;;;;;;0.95;0.95;;;20.80;99.90;;;;;;5089823;28;20245;-72
2021/07/18 07:48:20;;;;;;;0.80;0.80;;;21.00;99.90;;;;;;5088392;28;20219;-73
2021/07/18 07:50:47;;;;;;;0.40;0.40;;;21.30;99.90;;;;;;5089854;28;20221;-73
2021/07/18 07:53:13;;;;;;;0.73;0.73;;;21.80;99.90;;;;;;5089698;28;20156;-72
2021/07/18 07:55:39;;;;;;;0.50;0.50;;;22.40;99.90;;;;;;5088238;28;20177;-73
2021/07/18 07:58:07;;;;;;;0.73;0.73;;;22.60;99.90;;;;;;5088466;28;20195;-72
2021/07/18 08:00:33;;;;;;;1.08;1.08;;;23.00;99.90;;;;;;5089732;28;20171;-72
2021/07/18 08:02:59;;;;;;;5.13;1.33;;;23.30;99.90;;;;;;5088321;28;20217;-72
2021/07/18 08:05:25;;;;;;;1.20;1.20;;;23.30;99.90;;;;;;5089439;28;20183;-72
2021/07/18 08:07:51;;;;;;;4.00;1.42;;;23.50;99.90;;;;;;5087192;28;20256;-72
2021/07/18 08:10:19;;;;;;;0.52;0.52;;;24.80;99.90;;;;;;5089111;28;20156;-71
2021/07/18 08:12:47;;;;;;;1.00;0.80;;;25.60;99.90;;;;;;5089207;28;20274;-72
2021/07/18 08:15:15;;;;;;;2.72;1.70;;;25.30;99.90;;;;;;5088802;28;20190;-72
2021/07/18 08:17:41;;;;;;;0.82;0.77;;;25.50;99.90;;;;;;5086135;28;20159;-72
2021/07/18 08:20:11;;;;;;;11.00;2.13;;;25.80;99.90;;;;;;5086895;28;20168;-72
2021/07/18 08:22:38;;;;;;;0.90;0.60;;;27.00;99.90;;;;;;5088615;28;20167;-72
2021/07/18 08:25:04;;;;;;;0.65;0.52;;;28.60;99.90;;;;;;5088266;28;20273;-70
2021/07/18 08:27:30;;;;;;;1.55;0.80;;;30.10;99.90;;;;;;5085029;28;20203;-72
2021/07/18 08:29:56;;;;;;;2.70;1.85;;;30.60;99.90;;;;;;5088382;28;20186;-72
2021/07/18 08:32:22;;;;;;;1.50;1.40;;;30.30;99.90;;;;;;5089203;28;20162;-72
2021/07/18 08:34:48;;;;;;;0.70;0.50;;;29.10;99.90;;;;;;5088771;28;20202;-72
2021/07/18 08:37:14;;;;;;;0.57;0.57;;;28.50;99.90;;;;;;5088640;28;20215;-72
2021/07/18 08:39:40;;;;;;;1.52;1.15;;;27.70;99.90;;;;;;5088818;28;20159;-72
2021/07/18 08:42:07;;;;;;;0.50;0.50;;;26.70;99.90;;;;;;5087590;28;20167;-71
2021/07/18 08:44:34;;;;;;;1.70;1.60;;;26.50;99.90;;;;;;5070500;28;20190;-72
2021/07/18 08:47:01;;;;;;;0.75;0.75;;;26.00;99.90;;;;;;5068413;28;20226;-72
2021/07/18 08:49:26;;;;;;;1.77;0.88;;;26.30;99.90;;;;;;5068236;28;20176;-72
2021/07/18 08:51:53;;;;;;;0.88;0.85;;;26.60;99.90;;;;;;5078018;28;20163;-71
2021/07/18 08:54:23;;;;;;;1.08;0.98;;;27.30;99.90;;;;;;5087344;28;20156;-72
2021/07/18 08:56:50;;;;;;;1.65;1.45;;;28.80;99.90;;;;;;5086138;28;20167;-72
2021/07/18 08:59:15;;;;;;;0.52;0.52;;;29.30;99.90;;;;;;5087213;28;20163;-72
2021/07/18 09:01:43;;;;;;;1.80;1.17;;;29.90;99.90;;;;;;5083127;28;20186;-72
2021/07/18 09:04:10;;;;;;;1.70;1.60;;;31.00;99.90;;;;;;5087322;28;20172;-73
2021/07/18 09:06:39;;;;;;;1.52;0.95;;;29.90;99.90;;;;;;5086911;28;20207;-72
2021/07/18 09:09:07;;;;;;;1.33;1.23;;;30.50;99.90;;;;;;5087004;28;20163;-73
2021/07/18 09:11:32;;;;;;;1.95;1.20;;;30.30;99.90;;;;;;5087369;28;20156;-72
2021/07/18 09:14:05;;;;;;;1.13;1.05;;;29.50;99.90;;;;;;5086902;28;20163;-72
2021/07/18 09:16:36;;;;;;;1.83;1.45;;;29.20;99.90;;;;;;5087211;28;20191;-72
2021/07/18 09:19:19;;;;;;;1.83;1.73;;;29.60;99.90;;;;;;5084714;28;20159;-73
2021/07/18 09:21:52;;;;;;;1.67;1.58;;;29.80;99.90;;;;;;5084629;28;20189;-72
2021/07/18 09:24:22;;;;;;;0.90;0.85;;;29.30;99.90;;;;;;5086936;28;20166;-73
2021/07/18 09:27:26;;;;;;;0.63;0.63;;;30.00;99.90;;;;;;5086953;28;20203;-72
2021/07/18 09:30:03;;;;;;;1.90;1.67;;;30.00;99.90;;;;;;5085461;28;20183;-72
2021/07/18 09:32:30;;;;;;;1.58;1.48;;;29.90;99.90;;;;;;5085319;28;20181;-73
2021/07/18 09:34:59;;;;;;;1.73;1.63;;;28.80;99.90;;;;;;5086822;28;20199;-72
2021/07/18 09:37:30;;;;;;;1.42;1.33;;;28.50;99.90;;;;;;5088706;28;20197;-72
2021/07/18 09:39:59;;;;;;;1.92;1.23;;;28.10;99.90;;;;;;5087058;28;20174;-72
2021/07/18 09:42:35;;;;;;;1.48;1.27;;;28.90;99.90;;;;;;5085587;28;20655;-72
2021/07/18 09:45:04;;;;;;;1.30;1.25;;;28.20;99.90;;;;;;5086448;28;20216;-72
2021/07/18 09:47:30;;;;;;;4.75;2.25;;;28.20;99.90;;;;;;5086986;28;20191;-72
2021/07/18 09:49:56;;;;;;;1.45;1.35;;;28.70;99.90;;;;;;5085859;28;20769;-72
2021/07/18 09:52:27;;;;;;;0.88;0.85;;;28.70;99.90;;;;;;5085699;28;20178;-73
2021/07/18 09:54:58;;;;;;;0.45;0.45;;;29.40;99.90;;;;;;5085325;28;20240;-75
2021/07/18 09:57:40;;;;;;;1.90;1.50;;;29.80;99.90;;;;;;5084472;28;20461;-74
2021/07/18 10:00:10;;;;;;;2.63;1.15;;;29.70;99.90;;;;;;5084485;28;20221;-73
2021/07/18 10:02:36;;;;;;;7.10;2.50;;;29.30;99.90;;;;;;5090121;28;20164;-76
2021/07/18 10:05:03;;;;;;;1.45;1.35;;;29.50;99.90;;;;;;5087713;28;20191;-74
2021/07/18 10:07:35;;;;;;;1.80;1.70;;;30.40;99.90;;;;;;5089467;28;20221;-73
2021/07/18 10:10:05;;;;;;;2.05;1.23;;;31.20;99.90;;;;;;5090635;28;20173;-74
2021/07/18 10:12:34;;;;;;;1.10;1.00;;;31.30;99.90;;;;;;5089189;28;20171;-71
2021/07/18 10:15:01;;;;;;;1.17;0.73;;;31.70;99.90;;;;;;5086987;28;20194;-72
2021/07/18 10:17:29;;;;;;;1.85;1.60;;;31.00;99.90;;;;;;5086735;28;20980;-69
2021/07/18 10:19:56;;;;;;;1.45;1.35;;;30.20;99.90;;;;;;5085977;28;20237;-72
2021/07/18 10:22:24;;;;;;;1.52;1.15;;;29.40;99.90;;;;;;5088449;28;20175;-72
2021/07/18 10:24:55;;;;;;;3.33;1.63;;;29.20;99.90;;;;;;5086951;28;20203;-72
2021/07/18 10:27:22;;;;;;;2.40;1.95;;;30.50;99.90;;;;;;5085842;28;20227;-72
2021/07/18 10:29:52;;;;;;;4.15;1.20;;;30.80;99.90;;;;;;5088320;28;20199;-72
2021/07/18 10:32:19;;;;;;;1.42;1.33;;;32.00;99.90;;;;;;5088180;28;20175;-72
2021/07/18 10:34:47;;;;;;;2.05;1.63;;;32.50;99.90;;;;;;5088239;28;20225;-72
2021/07/18 10:37:15;;;;;;;1.85;1.13;;;31.40;99.90;;;;;;5085339;28;20179;-71
2021/07/18 10:39:43;;;;;;;1.60;1.30;;;30.40;99.90;;;;;;5078668;28;20191;-72
2021/07/18 10:42:32;;;;;;;3.03;1.52;;;30.20;99.90;;;;;;5084750;28;20199;-71
2021/07/18 10:45:14;;;;;;;0.25;0.25;;;29.40;99.90;;;;;;5069074;28;20306;-70
2021/07/18 10:47:59;;;;;;;1.13;1.08;;;28.80;99.90;;;;;;5070173;28;20190;-74
2021/07/18 10:50:46;;;;;;;2.65;2.35;;;28.00;99.90;;;;;;5070326;28;20184;-72
2021/07/18 10:53:20;;;;;;;1.48;1.38;;;26.40;99.90;;;;;;5088550;28;20258;-70
2021/07/18 10:55:47;;;;;;;2.05;1.85;;;26.40;99.90;;;;;;5110293;28;20486;-72
2021/07/18 10:58:38;;;;;;;1.33;1.25;;;26.60;99.90;;;;;;5108675;28;20192;-71
2021/07/18 11:01:10;;;;;;;2.45;1.92;;;26.70;99.90;;;;;;5109039;28;20663;-72
2021/07/18 11:03:37;;;;;;;1.35;1.25;;;27.10;99.90;;;;;;5109387;28;20312;-71
2021/07/18 11:06:26;;;;;;;1.90;1.80;;;27.80;99.90;;;;;;5110843;28;20220;-72
2021/07/18 11:09:14;;;;;;;1.88;1.52;;;27.70;99.90;;;;;;5110907;28;20190;-72
2021/07/18 11:11:48;;;;;;;2.58;2.05;;;27.40;99.90;;;;;;5110824;28;20159;-72
2021/07/18 11:14:21;;;;;;;1.55;1.45;;;26.90;99.90;;;;;;5110136;28;20190;-73
2021/07/18 11:16:48;;;;;;;3.47;2.38;;;26.50;99.90;;;;;;5109466;28;20525;-73
2021/07/18 11:19:39;;;;;;;4.35;2.17;;;26.20;99.90;;;;;;5110582;28;20160;-73
2021/07/18 11:22:13;;;;;;;2.13;1.95;;;25.30;99.90;;;;;;5110548;28;20175;-73
2021/07/18 11:24:56;;;;;;;1.60;1.45;;;24.70;99.90;;;;;;5110586;28;20158;-73
2021/07/18 11:27:31;;;;;;;2.95;2.28;;;24.40;99.90;;;;;;5110394;28;20179;-72
2021/07/18 11:29:59;;;;;;;1.65;0.73;;;24.10;99.90;;;;;;5109082;28;20178;-72
2021/07/18 11:32:28;;;;;;;2.17;1.33;;;23.60;99.90;;;;;;5109094;28;20166;-72
2021/07/18 11:34:55;;;;;;;0.88;0.88;;;23.30;99.90;;;;;;5101267;28;20183;-73
2021/07/18 11:37:22;;;;;;;1.50;1.20;;;23.50;99.90;;;;;;5094856;28;20178;-72
2021/07/18 11:39:48;;;;;;;1.92;1.80;;;23.40;99.90;;;;;;5100723;28;20226;-72
2021/07/18 11:42:16;;;;;;;8.48;1.75;;;23.20;99.90;;;;;;5090311;28;20167;-72
2021/07/18 11:44:47;;;;;;;3.00;2.25;;;22.70;99.90;;;;;;5099208;28;20267;-72
2021/07/18 11:47:18;;;;;;;1.50;1.30;;;22.40;99.90;;;;;;5098031;28;20205;-72
2021/07/18 11:49:48;;;;;;;1.55;1.45;;;22.40;99.90;;;;;;5096480;28;20164;-72
2021/07/18 11:52:15;;;;;;;1.40;1.30;;;22.60;99.90;;;;;;5106183;28;20230;-72
2021/07/18 11:54:43;;;;;;;6.30;1.20;;;22.90;99.90;;;;;;5094105;28;20159;-72
2021/07/18 11:57:15;;;;;;;3.83;2.95;;;23.20;99.90;;;;;;5100625;28;20206;-71
2021/07/18 11:59:42;;;;;;;4.28;2.83;;;23.50;99.90;;;;;;5101766;28;20198;-72
2021/07/18 12:02:10;;;;;;;2.75;2.47;;;23.80;99.90;;;;;;5092711;28;20234;-72
2021/07/18 12:04:36;;;;;;;1.85;1.75;;;23.90;99.90;;;;;;5105515;28;20166;-72
2021/07/18 12:07:07;;;;;;;2.92;2.22;;;23.70;99.90;;;;;;5094292;28;20197;-72
2021/07/18 12:09:37;;;;;;;5.07;2.10;;;23.20;99.90;;;;;;5096056;28;20182;-72
2021/07/18 12:12:06;;;;;;;1.90;1.80;;;22.60;99.90;;;;;;5105205;28;20174;-72
2021/07/18 12:14:34;;;;;;;2.10;1.90;;;22.40;99.90;;;;;;5091079;28;20197;-72
2021/07/18 12:17:10;;;;;;;0.85;0.85;;;22.30;99.90;;;;;;5102165;28;20198;-72
2021/07/18 12:19:38;;;;;;;1.70;1.63;;;22.30;99.90;;;;;;5100683;28;20261;-72
2021/07/18 12:22:11;;;;;;;1.55;1.05;;;22.40;99.90;;;;;;5091729;28;20179;-71
2021/07/18 12:24:41;;;;;;;15.27;2.20;;;22.00;99.90;;;;;;5090628;28;20197;-72
2021/07/18 12:27:16;;;;;;;2.10;1.95;;;22.00;99.90;;;;;;5100294;28;20190;-72
2021/07/18 12:29:42;;;;;;;3.05;2.67;;;21.90;99.90;;;;;;5101389;28;20212;-73
2021/07/18 12:32:09;;;;;;;3.42;2.58;;;21.50;99.90;;;;;;5090507;28;20171;-72
2021/07/18 12:34:36;;;;;;;0.82;0.82;;;21.40;99.90;;;;;;5076289;28;20307;-70
2021/07/18 12:37:08;;;;;;;2.40;2.30;;;21.50;99.90;;;;;;5104164;28;20229;-71
2021/07/18 12:39:52;;;;;;;3.00;1.85;;;21.40;99.90;;;;;;5108527;28;20197;-71
2021/07/18 12:42:30;;;;;;;2.03;1.42;;;21.20;99.90;;;;;;5092589;28;20174;-72
2021/07/18 12:45:08;;;;;;;1.75;1.17;;;21.30;99.90;;;;;;5087606;28;20195;-71
2021/07/18 12:47:37;;;;;;;1.17;1.17;;;21.20;99.90;;;;;;5088110;28;20221;-70
2021/07/18 12:50:08;;;;;;;1.85;1.33;;;20.90;99.90;;;;;;5087147;28;20155;-69